createdAt,value
2022-09-07T17:32:24.398Z,23.6
2022-09-07T17:45:28.218Z,23.6
2022-09-07T17:51:07.803Z,23.5
2022-09-07T17:56:49.534Z,23.5
2022-09-07T18:03:35.724Z,23.4
2022-09-07T18:09:14.723Z,23.4
2022-09-07T18:15:49.906Z,23.4
2022-09-07T18:21:32.529Z,23.3
2022-09-07T18:26:40.911Z,23.3
2022-09-07T18:33:23.317Z,23.3
2022-09-07T18:38:45.711Z,23.2
2022-09-07T18:51:16.710Z,23.1
2022-09-07T18:57:48.575Z,23.2
2022-09-07T19:03:33.529Z,23.2
2022-09-07T19:10:18.243Z,23.1
2022-09-07T19:15:56.915Z,23.1
2022-09-07T19:21:06.217Z,23
2022-09-07T19:26:45.311Z,23.1
2022-09-07T19:32:08.235Z,23.1
2022-09-07T19:37:47.363Z,23
2022-09-07T19:43:25.718Z,23
2022-09-07T19:49:06.139Z,22.9
2022-09-07T19:54:44.542Z,22.9
2022-09-07T20:00:22.256Z,22.9
2022-09-07T20:06:00.633Z,22.9
2022-09-07T20:11:23.147Z,22.9
2022-09-07T20:16:48.090Z,22.9
2022-09-07T20:22:24.822Z,22.9
2022-09-07T20:28:02.833Z,22.9
2022-09-07T20:33:59.618Z,22.9
2022-09-07T20:39:39.213Z,22.9
2022-09-07T20:45:17.731Z,22.9
2022-09-07T20:50:39.689Z,22.9
2022-09-07T20:56:20.400Z,23
2022-09-07T21:02:03.583Z,22.9
2022-09-07T21:07:41.290Z,22.9
2022-09-07T21:12:55.238Z,22.9
2022-09-07T21:18:34.039Z,22.9
2022-09-07T21:24:41.365Z,22.9
2022-09-07T21:29:52.297Z,22.9
2022-09-07T21:35:17.415Z,22.9
2022-09-07T21:40:39.234Z,22.9
